This is the latest recevied weather packets stored in our database for station/object OK1PMP-6. If no packets are shown the sender has not sent any weather packets the latest 10 day(s).
| Time | Temp. | Humidity | Pressure | Rain* | Wind** | Luminosity | Snow |
|---|---|---|---|---|---|---|---|
| 1777441075 | 4.44° C | 55% | 1029.2 hPa | 0 mm | - | 172 W/m² | - |
| 1777440176 | 3.33° C | 57% | 1029 hPa | 0 mm | - | 136 W/m² | - |
| 1777439263 | 1.67° C | 61% | 1028.8 hPa | 0 mm | - | 99 W/m² | - |
| 1777438362 | 1.11° C | 61% | 1028.8 hPa | 0 mm | - | 69 W/m² | - |
| 1777437462 | 1.67° C | 57% | 1028.6 hPa | 0 mm | - | 45 W/m² | - |
| 1777436562 | 1.67° C | 56% | 1028.5 hPa | 0 mm | - | 22 W/m² | - |
| 1777435662 | 1.67° C | 57% | 1028.6 hPa | 0 mm | - | 15 W/m² | - |
| 1777434771 | 1.67° C | 57% | 1028.3 hPa | 0 mm | - | 8 W/m² | - |
| 1777433862 | 1.67° C | 56% | 1028.3 hPa | 0 mm | - | 2 W/m² | - |
| 1777432965 | 1.67° C | 56% | 1028.3 hPa | 0 mm | - | 0 W/m² | - |
| 1777432062 | 1.11° C | 59% | 1028.1 hPa | 0 mm | - | 0 W/m² | - |
| 1777431156 | 1.11° C | 58% | 1028.2 hPa | 0 mm | - | 0 W/m² | - |
| 1777430256 | 1.11° C | 59% | 1028 hPa | 0 mm | - | 0 W/m² | - |
| 1777429355 | 0.56° C | 61% | 1028.3 hPa | 0 mm | - | 0 W/m² | - |
| 1777428463 | 0° C | 63% | 1027.8 hPa | 0 mm | - | 0 W/m² | - |
| 1777427556 | 0° C | 61% | 1027.9 hPa | 0 mm | - | 0 W/m² | - |
| 1777426656 | 0.56° C | 60% | 1028.1 hPa | 0 mm | - | 0 W/m² | - |
| 1777425758 | 0° C | 63% | 1027.8 hPa | 0 mm | - | 0 W/m² | - |
| 1777424857 | -0.56° C | 63% | 1027.9 hPa | 0 mm | - | 0 W/m² | - |
| 1777423956 | -0.56° C | 61% | 1027.9 hPa | 0 mm | - | 0 W/m² | - |
| 1777423132 | -0.56° C | 58% | 1027.8 hPa | 0 mm | - | 0 W/m² | - |
| 1777422162 | 0.56° C | 56% | 1027.9 hPa | 0 mm | - | 0 W/m² | - |
| 1777421257 | 1.67° C | 54% | 1028.1 hPa | 0 mm | - | 0 W/m² | - |
* Rain latest hour (hover to see other rain measurements)
** Current wind speed in m/s (hover to see current wind gust speed)